Time;durP1;ratioP1;P1;durP2;ratioP2;P2;SDS_P1;SDS_P2;PMS_P1;PMS_P2;Temp;Humidity;BMP_temperature;BMP_pressure;BME280_temperature;BME280_humidity;BME280_pressure;Samples;Min_cycle;Max_cycle;Signal;HPM_P1;HPM_P2
2021/08/09 00:02:06;;;;;;;4.10;2.20;;;16.10;99.90;;;;;;5029784;28;20198;-38
2021/08/09 00:04:34;;;;;;;2.60;2.13;;;16.20;99.90;;;;;;5038271;28;20199;-39
2021/08/09 00:07:00;;;;;;;4.13;2.47;;;16.20;99.90;;;;;;5030015;28;20241;-40
2021/08/09 00:09:26;;;;;;;4.00;2.23;;;16.20;99.90;;;;;;5027984;28;20441;-38
2021/08/09 00:11:52;;;;;;;4.43;2.20;;;16.20;99.90;;;;;;5029808;28;20483;-38
2021/08/09 00:14:17;;;;;;;2.73;2.10;;;16.20;99.90;;;;;;5042956;28;20214;-39
2021/08/09 00:16:43;;;;;;;2.20;2.00;;;16.20;99.90;;;;;;5027834;28;20198;-38
2021/08/09 00:19:09;;;;;;;3.40;2.90;;;16.20;99.90;;;;;;5034664;28;20186;-38
2021/08/09 00:21:34;;;;;;;3.67;2.00;;;16.20;99.90;;;;;;5029195;28;20316;-41
2021/08/09 00:24:00;;;;;;;2.97;2.20;;;16.20;99.90;;;;;;5027800;28;20277;-38
2021/08/09 00:26:29;;;;;;;3.50;2.30;;;16.20;99.90;;;;;;5030903;28;20688;-39
2021/08/09 00:28:55;;;;;;;2.67;2.20;;;16.20;99.90;;;;;;5039757;28;20217;-39
2021/08/09 00:31:21;;;;;;;4.07;2.50;;;16.20;99.90;;;;;;5041717;28;20461;-38
2021/08/09 00:33:46;;;;;;;3.33;2.40;;;16.30;99.90;;;;;;5030410;28;20827;-41
2021/08/09 00:36:12;;;;;;;3.03;2.10;;;16.30;99.90;;;;;;5027490;28;20194;-39
2021/08/09 00:38:37;;;;;;;5.40;2.80;;;16.20;99.90;;;;;;5027762;28;20217;-38
2021/08/09 00:41:03;;;;;;;3.17;2.20;;;16.30;99.90;;;;;;5030254;28;20221;-38
2021/08/09 00:43:29;;;;;;;3.20;2.30;;;16.30;99.90;;;;;;5038548;28;20251;-39
2021/08/09 00:45:56;;;;;;;2.40;2.00;;;16.30;99.90;;;;;;5030410;28;20200;-39
2021/08/09 00:48:24;;;;;;;2.70;2.27;;;16.40;99.90;;;;;;5027506;28;20217;-37
2021/08/09 00:50:50;;;;;;;3.43;2.10;;;16.30;99.90;;;;;;5027284;28;20424;-38
2021/08/09 00:53:16;;;;;;;2.43;1.90;;;16.40;99.90;;;;;;5027111;28;20425;-38
2021/08/09 00:55:42;;;;;;;3.30;2.47;;;16.30;99.90;;;;;;5026470;28;20182;-41
2021/08/09 00:58:09;;;;;;;2.37;2.13;;;16.30;99.90;;;;;;5032019;28;20764;-40
2021/08/09 01:00:35;;;;;;;3.40;2.60;;;16.40;99.90;;;;;;5031765;28;20428;-38
2021/08/09 01:03:01;;;;;;;3.50;2.10;;;16.40;99.90;;;;;;5027070;28;20426;-38
2021/08/09 01:05:26;;;;;;;3.20;2.30;;;16.40;99.90;;;;;;5036286;28;20186;-38
2021/08/09 01:08:24;;;;;;;4.03;2.47;;;16.40;99.90;;;;;;5026861;28;20229;-39
2021/08/09 01:11:00;;;;;;;2.77;1.70;;;16.40;99.90;;;;;;5034747;28;20231;-41
2021/08/09 01:13:53;;;;;;;3.33;2.50;;;16.40;99.90;;;;;;5038669;28;20812;-38
2021/08/09 01:16:26;;;;;;;3.93;2.40;;;16.40;99.90;;;;;;5030674;28;20448;-38
2021/08/09 01:18:57;;;;;;;4.10;2.10;;;16.40;99.90;;;;;;5027401;28;20419;-38
2021/08/09 01:21:24;;;;;;;4.97;2.43;;;16.40;99.90;;;;;;5030329;28;20862;-38
2021/08/09 01:23:53;;;;;;;3.20;2.47;;;16.40;99.90;;;;;;5026377;28;20939;-40
2021/08/09 01:26:37;;;;;;;3.30;2.33;;;16.40;99.90;;;;;;5031405;28;20465;-40
2021/08/09 01:29:09;;;;;;;4.50;2.80;;;16.40;99.90;;;;;;5039132;28;20413;-38
2021/08/09 01:31:44;;;;;;;2.63;2.20;;;16.40;99.90;;;;;;5024661;28;20448;-39
2021/08/09 01:34:12;;;;;;;3.77;2.27;;;16.40;99.90;;;;;;5034498;28;20420;-39
2021/08/09 01:36:41;;;;;;;3.30;2.30;;;16.40;99.90;;;;;;5026701;28;20518;-41
2021/08/09 01:39:09;;;;;;;2.63;1.60;;;16.40;99.90;;;;;;5026374;28;20478;-38
2021/08/09 01:41:36;;;;;;;3.83;2.13;;;16.30;99.90;;;;;;5029471;28;20632;-41
2021/08/09 01:44:04;;;;;;;10.20;2.90;;;16.30;99.90;;;;;;5034626;28;20440;-38
2021/08/09 01:46:31;;;;;;;3.43;2.30;;;16.40;99.90;;;;;;5031531;28;20481;-38
2021/08/09 01:48:57;;;;;;;4.80;2.50;;;16.30;99.90;;;;;;5026258;28;20421;-38
2021/08/09 01:51:23;;;;;;;2.77;2.57;;;16.30;99.90;;;;;;5034905;28;20958;-38
2021/08/09 01:53:49;;;;;;;2.93;2.23;;;16.40;99.90;;;;;;5026116;28;20615;-39
2021/08/09 01:56:15;;;;;;;2.60;1.87;;;16.30;99.90;;;;;;5025962;28;20711;-38
2021/08/09 01:58:41;;;;;;;3.00;2.40;;;16.30;99.90;;;;;;5032413;28;20300;-41
2021/08/09 02:01:07;;;;;;;3.27;2.10;;;16.30;99.90;;;;;;5030771;28;20495;-40
2021/08/09 02:03:33;;;;;;;3.00;2.13;;;16.30;99.90;;;;;;5025751;28;20195;-39
2021/08/09 02:05:58;;;;;;;4.43;2.73;;;16.30;99.90;;;;;;5031349;28;20289;-39
2021/08/09 02:08:24;;;;;;;3.23;2.10;;;16.30;99.90;;;;;;5024536;28;20536;-38
2021/08/09 02:10:58;;;;;;;3.17;2.20;;;16.30;99.90;;;;;;5024653;28;20244;-40
2021/08/09 02:13:36;;;;;;;2.30;1.90;;;16.30;99.90;;;;;;5038856;28;20970;-38
2021/08/09 02:16:12;;;;;;;8.93;2.83;;;16.30;99.90;;;;;;5042278;28;20423;-38
2021/08/09 02:18:57;;;;;;;4.60;2.43;;;16.30;99.90;;;;;;5026220;28;20448;-39
2021/08/09 02:21:31;;;;;;;3.63;2.07;;;16.30;99.90;;;;;;5026259;28;20512;-38
2021/08/09 02:24:07;;;;;;;5.43;2.40;;;16.20;99.90;;;;;;5025969;28;20425;-38
2021/08/09 02:26:43;;;;;;;3.10;2.73;;;16.20;99.90;;;;;;5027205;28;20464;-39
2021/08/09 02:29:17;;;;;;;3.60;3.10;;;16.20;99.90;;;;;;5038305;28;20416;-38
2021/08/09 02:31:44;;;;;;;2.63;1.90;;;16.20;99.90;;;;;;5030123;28;20531;-38
2021/08/09 02:34:13;;;;;;;2.67;2.40;;;16.10;99.90;;;;;;5033459;28;20416;-40
2021/08/09 02:36:41;;;;;;;3.00;2.70;;;16.10;99.90;;;;;;5025203;28;20462;-39
2021/08/09 02:39:07;;;;;;;4.30;2.37;;;16.10;99.90;;;;;;5025784;28;20926;-38
2021/08/09 02:41:32;;;;;;;4.43;2.53;;;16.20;99.90;;;;;;5025091;28;20441;-40
2021/08/09 02:43:58;;;;;;;4.03;2.20;;;16.10;99.90;;;;;;5027582;28;20502;-38
2021/08/09 02:46:25;;;;;;;3.20;2.20;;;16.10;99.90;;;;;;5034693;28;20206;-39
2021/08/09 02:48:51;;;;;;;3.27;2.00;;;16.10;99.90;;;;;;5025514;28;20773;-38
2021/08/09 02:51:19;;;;;;;4.97;2.27;;;16.10;99.90;;;;;;5031799;28;20485;-39
2021/08/09 02:53:46;;;;;;;2.77;2.20;;;16.10;99.90;;;;;;5025467;28;20783;-40
2021/08/09 02:56:12;;;;;;;3.77;2.37;;;16.10;99.90;;;;;;5025364;28;20452;-38
2021/08/09 02:58:38;;;;;;;2.70;2.10;;;16.10;99.90;;;;;;5026066;28;20421;-38
2021/08/09 03:01:04;;;;;;;3.10;2.33;;;16.10;99.90;;;;;;5034992;28;20425;-39
2021/08/09 03:03:32;;;;;;;3.10;2.40;;;16.20;99.90;;;;;;5024898;28;20657;-38
2021/08/09 03:05:59;;;;;;;4.30;2.33;;;16.10;99.90;;;;;;5028093;28;20424;-38
2021/08/09 03:08:28;;;;;;;2.47;2.27;;;16.00;99.90;;;;;;5024048;28;20448;-39
2021/08/09 03:10:54;;;;;;;4.00;2.60;;;16.00;99.90;;;;;;5024952;28;20496;-41
2021/08/09 03:13:24;;;;;;;2.63;2.10;;;16.00;99.90;;;;;;5032804;28;20441;-40
2021/08/09 03:15:51;;;;;;;3.97;2.30;;;16.00;99.90;;;;;;5032941;28;20428;-38
2021/08/09 03:18:17;;;;;;;3.70;2.57;;;16.00;99.90;;;;;;5027244;28;20420;-38
2021/08/09 03:20:43;;;;;;;2.40;2.00;;;16.00;99.90;;;;;;5037362;28;20435;-38
2021/08/09 03:23:09;;;;;;;4.70;2.53;;;16.10;99.90;;;;;;5031516;28;20248;-38
2021/08/09 03:25:37;;;;;;;3.23;2.07;;;16.00;99.90;;;;;;5029013;28;20484;-39
2021/08/09 03:28:03;;;;;;;2.40;2.00;;;16.10;99.90;;;;;;5030561;28;20468;-40
2021/08/09 03:30:28;;;;;;;4.20;2.43;;;16.00;99.90;;;;;;5035206;28;20416;-39
2021/08/09 03:32:55;;;;;;;3.33;2.30;;;16.00;99.90;;;;;;5029774;28;20192;-38
2021/08/09 03:35:21;;;;;;;2.97;2.30;;;16.00;99.90;;;;;;5036099;28;20266;-39
2021/08/09 03:37:47;;;;;;;3.73;2.23;;;16.00;99.90;;;;;;5029038;28;20418;-38
2021/08/09 03:40:13;;;;;;;3.47;2.80;;;16.00;99.90;;;;;;5026990;28;20436;-39
2021/08/09 03:42:39;;;;;;;5.17;2.60;;;16.00;99.90;;;;;;5030464;28;20499;-39
2021/08/09 03:45:06;;;;;;;2.77;2.43;;;16.00;99.90;;;;;;5043186;28;20424;-38
2021/08/09 03:47:32;;;;;;;4.90;3.20;;;16.00;99.90;;;;;;5041922;28;20202;-37
2021/08/09 03:49:58;;;;;;;4.13;2.37;;;16.00;99.90;;;;;;5029691;28;20471;-38
2021/08/09 03:52:23;;;;;;;4.00;2.50;;;16.00;99.90;;;;;;5030138;28;20605;-39
2021/08/09 03:54:49;;;;;;;4.50;2.37;;;16.00;99.90;;;;;;5028563;28;20191;-38
2021/08/09 03:57:15;;;;;;;5.00;2.93;;;16.00;99.90;;;;;;5031760;28;20184;-38
2021/08/09 03:59:40;;;;;;;3.80;2.33;;;16.00;99.90;;;;;;5039399;28;20611;-38
2021/08/09 04:02:08;;;;;;;3.40;2.27;;;16.00;99.90;;;;;;5035491;28;20209;-38
2021/08/09 04:04:33;;;;;;;3.50;2.43;;;16.00;99.90;;;;;;5028430;28;20195;-38
2021/08/09 04:06:59;;;;;;;2.53;1.60;;;16.00;99.90;;;;;;5039489;28;20456;-38
2021/08/09 04:09:25;;;;;;;5.73;2.33;;;16.00;99.90;;;;;;5028242;28;20214;-40
2021/08/09 04:11:50;;;;;;;2.87;2.50;;;16.00;99.90;;;;;;5027114;28;20190;-38
2021/08/09 04:14:16;;;;;;;3.57;2.33;;;16.00;99.90;;;;;;5035465;28;20717;-40
2021/08/09 04:16:42;;;;;;;5.03;2.33;;;16.00;99.90;;;;;;5036482;28;20190;-38
2021/08/09 04:19:08;;;;;;;3.23;2.93;;;16.00;99.90;;;;;;5028091;28;20669;-39
2021/08/09 04:21:34;;;;;;;5.10;2.20;;;16.00;99.90;;;;;;5035295;28;20425;-40
2021/08/09 04:23:59;;;;;;;2.90;2.50;;;16.00;99.90;;;;;;5028225;28;20187;-39
2021/08/09 04:26:25;;;;;;;4.20;2.50;;;16.00;99.90;;;;;;5027668;28;20210;-38
2021/08/09 04:28:51;;;;;;;2.40;2.20;;;15.90;99.90;;;;;;5036456;28;20300;-38
2021/08/09 04:31:18;;;;;;;4.80;2.50;;;15.90;99.90;;;;;;5036940;28;20182;-41
2021/08/09 04:33:45;;;;;;;5.20;2.30;;;16.00;99.90;;;;;;5041674;28;20247;-39
2021/08/09 04:36:11;;;;;;;6.70;2.63;;;16.00;99.90;;;;;;5029223;28;20472;-39
2021/08/09 04:38:37;;;;;;;3.63;2.43;;;16.00;99.90;;;;;;5027756;28;20433;-41
2021/08/09 04:41:06;;;;;;;3.13;2.57;;;16.00;99.90;;;;;;5026953;28;20440;-39
2021/08/09 04:43:37;;;;;;;4.10;2.90;;;15.90;99.90;;;;;;5036873;28;20459;-41
2021/08/09 04:46:04;;;;;;;3.07;2.50;;;15.90;99.90;;;;;;5038912;28;20521;-41
2021/08/09 04:48:30;;;;;;;4.57;2.70;;;15.90;99.90;;;;;;5036580;28;20459;-38
2021/08/09 04:50:56;;;;;;;5.10;3.07;;;15.90;99.90;;;;;;5033268;28;20421;-38
2021/08/09 04:53:22;;;;;;;5.07;2.23;;;15.90;99.90;;;;;;5035014;28;20425;-41
2021/08/09 04:55:48;;;;;;;3.50;2.20;;;15.90;99.90;;;;;;5027642;28;20938;-39
2021/08/09 04:58:13;;;;;;;6.70;3.40;;;15.80;99.90;;;;;;5028334;28;20692;-40
2021/08/09 05:00:39;;;;;;;3.37;2.37;;;15.80;99.90;;;;;;5032819;28;20527;-38
2021/08/09 05:03:05;;;;;;;3.40;2.43;;;15.80;99.90;;;;;;5031139;28;20264;-38
2021/08/09 05:05:30;;;;;;;4.43;2.93;;;15.80;99.90;;;;;;5027477;28;20202;-38
2021/08/09 05:07:57;;;;;;;4.63;2.60;;;15.80;99.90;;;;;;5034892;28;20225;-40
2021/08/09 05:10:24;;;;;;;2.60;2.40;;;15.80;99.90;;;;;;5026769;28;20242;-38
2021/08/09 05:12:50;;;;;;;2.43;2.13;;;15.80;99.90;;;;;;5026312;28;20433;-38
2021/08/09 05:15:16;;;;;;;2.40;2.20;;;15.80;99.90;;;;;;5029587;28;20733;-37
2021/08/09 05:17:42;;;;;;;3.17;2.30;;;15.80;99.90;;;;;;5046505;28;20541;-37
2021/08/09 05:20:09;;;;;;;3.40;2.20;;;15.80;99.90;;;;;;5027447;28;20421;-38
2021/08/09 05:22:35;;;;;;;3.20;2.40;;;15.80;99.90;;;;;;5030823;28;20788;-37
2021/08/09 05:25:03;;;;;;;4.83;2.70;;;15.80;99.90;;;;;;5033816;28;20421;-38
2021/08/09 05:27:30;;;;;;;4.60;2.90;;;15.90;99.90;;;;;;5038471;28;20467;-38
2021/08/09 05:29:55;;;;;;;2.63;2.40;;;15.90;99.90;;;;;;5034846;28;20540;-38
2021/08/09 05:32:21;;;;;;;2.90;2.13;;;15.80;99.90;;;;;;5040805;28;20737;-37
2021/08/09 05:34:47;;;;;;;4.30;2.67;;;15.80;99.90;;;;;;5038834;28;20687;-38
2021/08/09 05:37:13;;;;;;;2.43;2.23;;;15.90;99.90;;;;;;5026374;28;20296;-38
2021/08/09 05:39:40;;;;;;;3.20;2.87;;;15.90;99.90;;;;;;5026617;28;20197;-37
2021/08/09 05:42:06;;;;;;;2.87;2.30;;;15.90;99.90;;;;;;5025322;28;20448;-38
2021/08/09 05:44:31;;;;;;;4.30;2.63;;;15.90;99.90;;;;;;5032100;28;20819;-38
2021/08/09 05:46:57;;;;;;;2.70;2.40;;;15.90;99.90;;;;;;5038947;28;20216;-37
2021/08/09 05:49:23;;;;;;;4.10;2.93;;;16.00;99.90;;;;;;5041489;28;20288;-38
2021/08/09 05:51:48;;;;;;;2.90;2.33;;;16.00;99.90;;;;;;5032666;28;20337;-39
2021/08/09 05:54:14;;;;;;;4.73;2.30;;;16.00;99.90;;;;;;5037593;28;20394;-38
2021/08/09 05:56:40;;;;;;;3.53;2.30;;;16.00;99.90;;;;;;5032553;28;20194;-38
2021/08/09 05:59:05;;;;;;;5.10;2.10;;;16.00;99.90;;;;;;5032869;28;20212;-37
2021/08/09 06:01:32;;;;;;;3.90;2.90;;;16.10;99.90;;;;;;5040084;28;20213;-37
2021/08/09 06:03:57;;;;;;;4.93;2.60;;;16.00;99.90;;;;;;5027028;28;20225;-37
2021/08/09 06:06:23;;;;;;;5.37;2.63;;;16.10;99.90;;;;;;5031643;28;20498;-37
2021/08/09 06:08:49;;;;;;;4.07;2.90;;;16.10;99.90;;;;;;5025323;28;20680;-38
2021/08/09 06:11:15;;;;;;;2.60;2.40;;;16.10;99.90;;;;;;5025593;28;20520;-37
2021/08/09 06:13:41;;;;;;;5.80;4.03;;;16.10;99.90;;;;;;5029185;28;20210;-38
2021/08/09 06:16:06;;;;;;;2.30;2.10;;;16.10;99.90;;;;;;5042521;28;20232;-39
2021/08/09 06:18:33;;;;;;;2.73;2.20;;;16.10;99.90;;;;;;5034796;28;20936;-39
2021/08/09 06:21:00;;;;;;;3.93;2.57;;;16.20;99.90;;;;;;5026255;28;20548;-40
2021/08/09 06:23:26;;;;;;;4.03;2.27;;;16.20;99.90;;;;;;5025277;28;20425;-43
2021/08/09 06:25:54;;;;;;;4.03;2.40;;;16.20;99.90;;;;;;5025908;28;20551;-39
2021/08/09 06:31:57;;;;;;;3.97;2.43;;;16.20;99.90;;;;;;5024092;28;20444;-42
2021/08/09 06:34:23;;;;;;;2.63;2.40;;;16.20;99.90;;;;;;5038434;28;20421;-39
2021/08/09 06:36:48;;;;;;;3.40;2.10;;;16.20;99.90;;;;;;5033653;28;20208;-38
2021/08/09 06:39:18;;;;;;;2.70;2.10;;;16.20;99.90;;;;;;5029820;28;20187;-38
2021/08/09 06:41:45;;;;;;;2.43;2.10;;;16.20;99.90;;;;;;5025212;28;20186;-38
2021/08/09 06:44:10;;;;;;;3.93;2.23;;;16.30;99.90;;;;;;5032329;28;20448;-38
2021/08/09 06:46:36;;;;;;;2.10;1.90;;;16.30;99.90;;;;;;5028266;28;20460;-38
2021/08/09 06:49:03;;;;;;;3.53;2.60;;;16.30;99.90;;;;;;5031158;28;20187;-39
2021/08/09 06:51:29;;;;;;;2.70;2.00;;;16.20;99.90;;;;;;5025115;28;20190;-38
2021/08/09 06:53:55;;;;;;;6.63;2.50;;;16.20;99.90;;;;;;5038879;28;20486;-38
2021/08/09 06:56:21;;;;;;;6.57;2.70;;;16.30;99.90;;;;;;5029809;28;20190;-38
2021/08/09 06:58:46;;;;;;;2.67;2.10;;;16.30;99.90;;;;;;5029217;28;20268;-37
2021/08/09 07:01:12;;;;;;;2.97;1.97;;;16.30;99.90;;;;;;5032560;28;20272;-38
2021/08/09 07:03:38;;;;;;;2.50;2.13;;;16.30;99.90;;;;;;5043862;28;20190;-38
2021/08/09 07:06:03;;;;;;;2.90;2.03;;;16.30;99.90;;;;;;5038493;28;20352;-38
2021/08/09 07:08:29;;;;;;;3.10;2.40;;;16.40;99.90;;;;;;5037723;28;20278;-40
2021/08/09 07:10:55;;;;;;;2.30;1.87;;;16.30;99.90;;;;;;5039027;28;20231;-38
2021/08/09 07:13:21;;;;;;;4.83;2.40;;;16.40;99.90;;;;;;5037665;28;20261;-38
2021/08/09 07:15:46;;;;;;;3.93;2.37;;;16.40;99.90;;;;;;5032923;28;20563;-38
2021/08/09 07:18:14;;;;;;;3.97;2.13;;;16.40;99.90;;;;;;5041750;28;20197;-38
2021/08/09 07:20:39;;;;;;;4.70;2.40;;;16.40;99.90;;;;;;5047068;28;20663;-37
2021/08/09 07:23:05;;;;;;;3.40;1.90;;;16.40;99.90;;;;;;5030649;28;20473;-37
2021/08/09 07:25:32;;;;;;;3.70;2.80;;;16.50;99.90;;;;;;5029401;28;20198;-38
2021/08/09 07:27:58;;;;;;;3.37;2.17;;;16.50;99.90;;;;;;5029682;28;20218;-37
2021/08/09 07:30:24;;;;;;;6.30;2.60;;;16.50;99.90;;;;;;5032089;28;20436;-37
2021/08/09 07:32:50;;;;;;;3.50;1.97;;;16.50;99.90;;;;;;5044186;28;20424;-37
2021/08/09 07:35:16;;;;;;;4.27;2.40;;;16.60;99.90;;;;;;5039514;28;20190;-37
2021/08/09 07:37:41;;;;;;;4.33;2.17;;;16.60;99.90;;;;;;5034024;28;20436;-37
2021/08/09 07:40:08;;;;;;;6.63;2.23;;;16.70;99.90;;;;;;5038872;28;20195;-40
2021/08/09 07:42:33;;;;;;;4.37;2.17;;;16.80;99.90;;;;;;5028834;28;20194;-38
2021/08/09 07:44:59;;;;;;;4.27;2.43;;;16.80;99.90;;;;;;5042241;28;20506;-37
2021/08/09 07:47:25;;;;;;;3.67;2.30;;;16.90;99.90;;;;;;5036537;28;20772;-38
2021/08/09 07:49:50;;;;;;;4.40;2.00;;;17.00;99.90;;;;;;5033213;28;20194;-37
2021/08/09 07:52:16;;;;;;;3.87;2.27;;;17.10;99.90;;;;;;5031202;28;20189;-38
2021/08/09 07:54:42;;;;;;;2.30;1.67;;;17.10;99.90;;;;;;5028493;28;20190;-38
2021/08/09 07:57:08;;;;;;;3.07;2.10;;;17.20;99.90;;;;;;5035938;28;20181;-38
2021/08/09 07:59:34;;;;;;;2.30;1.90;;;17.30;99.90;;;;;;5039078;28;20198;-37
2021/08/09 08:02:02;;;;;;;4.90;2.00;;;17.40;99.90;;;;;;5039758;28;20221;-38
2021/08/09 08:04:28;;;;;;;2.33;2.03;;;17.40;99.90;;;;;;5041482;28;20523;-38
2021/08/09 08:06:54;;;;;;;4.00;2.10;;;17.60;99.90;;;;;;5037625;28;20471;-38
2021/08/09 08:09:20;;;;;;;3.70;2.50;;;17.60;99.90;;;;;;5027331;28;20611;-38
2021/08/09 08:11:46;;;;;;;2.10;1.90;;;17.60;99.90;;;;;;5039757;28;20429;-40
2021/08/09 08:14:12;;;;;;;4.80;1.90;;;17.60;99.90;;;;;;5029025;28;20195;-38
2021/08/09 08:16:38;;;;;;;3.50;2.07;;;17.70;99.90;;;;;;5037878;28;20502;-37
2021/08/09 08:19:04;;;;;;;2.07;1.43;;;17.80;99.90;;;;;;5041133;28;21097;-38
2021/08/09 08:21:31;;;;;;;2.90;2.57;;;17.80;99.90;;;;;;5027651;28;20445;-38
2021/08/09 08:23:56;;;;;;;3.77;1.80;;;17.90;99.90;;;;;;5039190;28;20239;-38
2021/08/09 08:26:22;;;;;;;3.13;1.73;;;18.00;99.90;;;;;;5032473;28;20469;-37
2021/08/09 08:28:48;;;;;;;2.53;1.53;;;18.10;99.90;;;;;;5029819;28;20194;-38
2021/08/09 08:31:13;;;;;;;5.03;2.07;;;18.10;99.90;;;;;;5030381;28;20232;-38
2021/08/09 08:33:39;;;;;;;3.50;2.47;;;18.10;99.90;;;;;;5046065;28;20190;-38
2021/08/09 08:36:05;;;;;;;4.10;2.30;;;18.10;99.90;;;;;;5031568;28;20232;-38
2021/08/09 08:38:31;;;;;;;2.93;2.03;;;18.20;99.90;;;;;;5034611;28;20212;-37
2021/08/09 08:40:57;;;;;;;1.83;1.73;;;18.20;99.90;;;;;;5032193;28;20201;-38
2021/08/09 08:43:26;;;;;;;2.27;2.07;;;18.20;99.90;;;;;;5034435;28;20348;-38
2021/08/09 08:46:04;;;;;;;2.40;1.90;;;18.20;99.90;;;;;;5040242;28;20444;-38
2021/08/09 08:48:33;;;;;;;3.70;1.90;;;18.20;99.90;;;;;;5041501;28;20440;-38
2021/08/09 08:51:00;;;;;;;4.10;2.10;;;18.20;99.90;;;;;;5040687;28;20421;-38
2021/08/09 08:53:28;;;;;;;3.37;2.13;;;18.30;99.90;;;;;;5032597;28;20433;-38
2021/08/09 08:55:54;;;;;;;2.07;1.80;;;18.30;99.90;;;;;;5029205;28;20788;-37
2021/08/09 08:58:20;;;;;;;4.30;2.40;;;18.40;99.90;;;;;;5029061;28;20429;-40
2021/08/09 09:00:48;;;;;;;3.37;2.10;;;18.40;99.90;;;;;;5034064;28;20482;-37
2021/08/09 09:03:20;;;;;;;2.93;2.10;;;18.50;99.90;;;;;;5036364;28;20486;-38
2021/08/09 09:06:06;;;;;;;2.93;1.93;;;18.50;99.90;;;;;;5032492;28;20461;-38
2021/08/09 09:08:48;;;;;;;3.87;2.07;;;18.60;99.90;;;;;;5029802;28;20448;-37
2021/08/09 09:11:22;;;;;;;5.03;2.00;;;18.70;99.90;;;;;;5034210;28;20800;-39
2021/08/09 09:13:59;;;;;;;3.40;2.33;;;18.80;99.90;;;;;;5035927;28;20498;-37
2021/08/09 09:16:26;;;;;;;2.73;2.10;;;18.80;99.90;;;;;;5043024;28;20438;-38
2021/08/09 09:18:56;;;;;;;3.33;2.07;;;18.90;99.90;;;;;;5036276;28;20491;-40
2021/08/09 09:21:38;;;;;;;3.70;1.87;;;18.90;99.90;;;;;;5029431;28;20453;-37
2021/08/09 09:24:16;;;;;;;3.53;2.33;;;19.00;99.90;;;;;;5034175;28;20435;-38
2021/08/09 09:26:44;;;;;;;1.60;1.50;;;19.10;99.90;;;;;;5028897;28;20461;-41
2021/08/09 09:29:15;;;;;;;4.00;1.90;;;19.20;99.90;;;;;;5028477;28;20725;-38
2021/08/09 09:31:43;;;;;;;2.80;1.80;;;19.20;99.90;;;;;;5034840;28;20444;-38
2021/08/09 09:34:11;;;;;;;4.60;2.47;;;19.30;99.90;;;;;;5043146;28;20431;-38
2021/08/09 09:36:55;;;;;;;5.60;1.83;;;19.40;99.90;;;;;;5036109;28;20436;-40
2021/08/09 09:39:32;;;;;;;3.63;1.97;;;19.40;99.90;;;;;;5044924;28;20983;-40
2021/08/09 09:42:01;;;;;;;2.13;1.93;;;19.40;99.90;;;;;;5026326;28;20432;-38
2021/08/09 09:44:29;;;;;;;2.93;2.20;;;19.40;99.90;;;;;;5041902;28;20440;-38
2021/08/09 09:47:20;;;;;;;3.40;2.07;;;19.50;99.90;;;;;;5043094;28;20472;-39
2021/08/09 09:49:47;;;;;;;2.10;1.83;;;19.60;99.90;;;;;;5041856;28;20425;-38
2021/08/09 09:52:33;;;;;;;5.60;2.20;;;19.70;99.90;;;;;;5027646;28;20529;-38
2021/08/09 09:55:10;;;;;;;4.23;2.53;;;19.70;99.90;;;;;;5040099;28;20563;-38
2021/08/09 09:57:38;;;;;;;4.93;2.30;;;19.70;99.90;;;;;;5028263;28;20437;-38
2021/08/09 10:00:12;;;;;;;3.93;2.03;;;19.60;99.90;;;;;;5027396;28;20971;-38
2021/08/09 10:02:42;;;;;;;4.03;2.60;;;19.60;99.90;;;;;;5035071;28;20432;-38
2021/08/09 10:05:08;;;;;;;3.20;2.27;;;19.50;99.90;;;;;;5039019;28;20424;-38
2021/08/09 10:07:36;;;;;;;2.30;1.80;;;19.50;99.90;;;;;;5026562;28;20473;-38
2021/08/09 10:10:04;;;;;;;3.73;1.90;;;19.40;99.90;;;;;;5033930;28;21130;-39
2021/08/09 10:12:32;;;;;;;3.77;2.57;;;19.40;99.90;;;;;;5027895;28;20494;-38
2021/08/09 10:14:59;;;;;;;2.70;2.20;;;19.40;99.90;;;;;;5027483;28;20955;-38
2021/08/09 10:17:27;;;;;;;3.90;2.40;;;19.40;99.90;;;;;;5037833;28;20451;-38
2021/08/09 10:19:56;;;;;;;4.03;2.30;;;19.40;99.90;;;;;;5037842;28;20491;-39
2021/08/09 10:22:22;;;;;;;5.40;1.97;;;19.40;99.90;;;;;;5036276;28;20437;-38
2021/08/09 10:24:51;;;;;;;3.00;2.13;;;19.40;99.90;;;;;;5031092;28;21194;-39
2021/08/09 10:27:37;;;;;;;6.40;2.50;;;19.50;99.90;;;;;;5026808;28;20472;-38
2021/08/09 10:30:04;;;;;;;3.10;1.97;;;19.50;99.90;;;;;;5035279;28;21197;-40
2021/08/09 10:32:46;;;;;;;3.47;2.10;;;19.60;99.90;;;;;;5042459;28;20444;-38
2021/08/09 10:35:33;;;;;;;2.77;2.20;;;19.60;99.90;;;;;;5035472;28;20983;-39
2021/08/09 10:38:19;;;;;;;3.97;2.03;;;19.70;99.90;;;;;;5027725;28;20495;-38
2021/08/09 10:41:01;;;;;;;3.77;2.10;;;19.70;99.90;;;;;;5039600;28;20907;-38
2021/08/09 10:43:27;;;;;;;3.83;1.77;;;19.80;99.90;;;;;;5033120;28;20423;-38
2021/08/09 10:45:52;;;;;;;2.50;1.97;;;19.80;99.90;;;;;;5045309;28;20586;-38
2021/08/09 10:48:48;;;;;;;4.00;1.60;;;19.80;99.90;;;;;;5036408;28;20574;-38
2021/08/09 10:51:13;;;;;;;2.07;1.87;;;20.00;99.90;;;;;;5030310;28;20284;-39
2021/08/09 10:53:40;;;;;;;5.87;2.00;;;20.10;99.90;;;;;;5027579;28;20428;-39
2021/08/09 10:56:06;;;;;;;2.20;1.57;;;20.30;99.90;;;;;;5036436;28;20185;-38
2021/08/09 10:58:41;;;;;;;2.90;1.93;;;20.40;99.90;;;;;;5027064;28;20436;-39
2021/08/09 11:01:11;;;;;;;5.43;1.93;;;20.50;99.90;;;;;;5026030;28;20178;-39
2021/08/09 11:04:00;;;;;;;2.20;1.90;;;20.60;99.90;;;;;;5029279;28;20430;-38
2021/08/09 11:06:55;;;;;;;1.80;1.60;;;20.70;99.90;;;;;;5042732;28;20563;-42
2021/08/09 11:09:29;;;;;;;3.50;1.57;;;20.80;99.90;;;;;;5029246;28;20451;-39
2021/08/09 11:12:17;;;;;;;1.70;1.43;;;20.80;99.90;;;;;;5035562;28;20431;-41
2021/08/09 11:15:01;;;;;;;2.40;1.50;;;20.80;99.90;;;;;;5038979;28;20452;-39
2021/08/09 11:17:28;;;;;;;3.60;1.57;;;20.70;99.90;;;;;;5034655;28;20436;-38
2021/08/09 11:20:12;;;;;;;3.70;2.47;;;20.60;99.90;;;;;;5040457;28;20487;-38
2021/08/09 11:22:43;;;;;;;3.13;1.83;;;20.60;99.90;;;;;;5026950;28;20428;-38
2021/08/09 11:25:23;;;;;;;2.27;1.90;;;20.60;99.90;;;;;;5027400;28;20469;-38
2021/08/09 11:28:17;;;;;;;2.20;1.47;;;20.60;99.90;;;;;;5026657;28;20479;-39
2021/08/09 11:30:50;;;;;;;4.60;2.03;;;20.60;99.90;;;;;;5026415;28;20436;-38
2021/08/09 11:33:30;;;;;;;3.67;1.60;;;20.60;99.90;;;;;;5031979;28;20420;-38
2021/08/09 11:36:00;;;;;;;4.90;1.87;;;20.70;99.90;;;;;;5034670;28;20429;-38
2021/08/09 11:38:28;;;;;;;2.73;1.67;;;20.90;99.90;;;;;;5027430;28;20425;-39
2021/08/09 11:40:59;;;;;;;2.03;1.33;;;21.00;99.90;;;;;;5039082;28;20436;-40
2021/08/09 11:43:30;;;;;;;2.33;1.63;;;21.00;99.90;;;;;;5035961;28;20987;-38
2021/08/09 11:46:03;;;;;;;4.43;1.67;;;21.10;99.90;;;;;;5049948;28;20431;-38
2021/08/09 11:48:34;;;;;;;1.50;1.33;;;21.20;99.90;;;;;;5041281;28;20942;-39
2021/08/09 11:51:09;;;;;;;5.00;1.57;;;21.20;99.90;;;;;;5034788;28;20749;-38
2021/08/09 11:53:37;;;;;;;2.37;1.50;;;21.20;99.90;;;;;;5030377;28;20521;-40
2021/08/09 11:56:15;;;;;;;3.43;1.87;;;21.20;99.90;;;;;;5040498;28;20425;-38
2021/08/09 11:58:42;;;;;;;3.57;1.60;;;21.30;99.90;;;;;;5030323;28;20522;-38
2021/08/09 12:01:09;;;;;;;3.40;1.60;;;21.30;99.90;;;;;;5028679;28;20490;-38
2021/08/09 12:03:35;;;;;;;4.00;1.90;;;21.40;99.90;;;;;;5042366;28;20475;-39
2021/08/09 12:06:21;;;;;;;2.10;1.43;;;21.30;99.90;;;;;;5044484;28;20428;-40
2021/08/09 12:08:51;;;;;;;3.00;1.57;;;21.40;99.90;;;;;;5029744;28;20448;-38
2021/08/09 12:11:17;;;;;;;2.60;1.57;;;21.40;99.90;;;;;;5029387;28;20437;-39
2021/08/09 12:13:43;;;;;;;3.33;1.90;;;21.40;99.90;;;;;;5029958;28;20429;-39
2021/08/09 12:16:16;;;;;;;3.03;1.50;;;21.40;99.90;;;;;;5029906;28;20210;-38
2021/08/09 12:18:53;;;;;;;2.73;1.20;;;21.40;99.90;;;;;;5034948;28;20491;-38
2021/08/09 12:21:20;;;;;;;2.43;1.67;;;21.50;99.90;;;;;;5040074;28;20834;-41
2021/08/09 12:23:56;;;;;;;3.93;1.63;;;21.60;99.90;;;;;;5030001;28;20551;-38
2021/08/09 12:26:41;;;;;;;1.90;1.50;;;21.60;99.90;;;;;;5038289;28;20424;-40
2021/08/09 12:29:24;;;;;;;3.00;1.47;;;21.70;99.90;;;;;;5048809;28;20431;-39
2021/08/09 12:31:50;;;;;;;5.30;1.60;;;21.70;99.90;;;;;;5035510;28;21367;-38
2021/08/09 12:34:21;;;;;;;1.63;1.43;;;21.70;99.90;;;;;;5041000;28;20424;-38
2021/08/09 12:36:48;;;;;;;2.63;1.47;;;21.70;99.90;;;;;;5046831;28;20930;-38
2021/08/09 12:39:33;;;;;;;1.87;1.40;;;21.70;99.90;;;;;;5031507;28;20429;-38
2021/08/09 12:42:21;;;;;;;2.30;1.67;;;21.70;99.90;;;;;;5032630;28;21241;-38
2021/08/09 12:44:50;;;;;;;4.57;1.60;;;21.70;99.90;;;;;;5045497;28;20428;-38
2021/08/09 12:47:16;;;;;;;2.57;1.53;;;21.70;99.90;;;;;;5046027;28;20567;-38
2021/08/09 12:49:42;;;;;;;4.03;1.30;;;21.60;99.90;;;;;;5041182;28;20497;-38
2021/08/09 12:52:09;;;;;;;3.40;1.30;;;21.60;99.90;;;;;;5041141;28;20428;-38
2021/08/09 12:54:35;;;;;;;4.07;1.77;;;21.50;99.90;;;;;;5029512;28;20519;-39
2021/08/09 12:57:01;;;;;;;3.10;1.50;;;21.40;99.90;;;;;;5029875;28;20528;-39
2021/08/09 12:59:27;;;;;;;1.83;1.27;;;21.40;99.90;;;;;;5029157;28;20509;-39
2021/08/09 13:01:54;;;;;;;2.93;1.90;;;21.30;99.90;;;;;;5028222;28;20197;-39